Time;durP1;ratioP1;P1;durP2;ratioP2;P2;SDS_P1;SDS_P2;PMS_P1;PMS_P2;Temp;Humidity;BMP_temperature;BMP_pressure;BME280_temperature;BME280_humidity;BME280_pressure;Samples;Min_cycle;Max_cycle;Signal;HPM_P1;HPM_P2
2022/05/17 00:02:25;;;;;;;12.27;1.73;;;;;;;19.40;nan;101809.47;4871032;29;20481;-92
2022/05/17 00:04:52;;;;;;;8.80;1.47;;;;;;;19.42;nan;101803.69;4793727;29;20464;-92
2022/05/17 00:07:28;;;;;;;5.53;1.43;;;;;;;19.29;nan;101802.69;4809863;29;20474;-91
2022/05/17 00:10:17;;;;;;;6.27;1.30;;;;;;;19.35;nan;101812.06;4790380;29;20457;-94
2022/05/17 00:12:50;;;;;;;5.53;1.30;;;;;;;19.33;nan;101803.97;4821741;29;20484;-92
2022/05/17 00:15:23;;;;;;;9.40;1.90;;;;;;;19.27;nan;101798.47;4808726;29;20527;-91
2022/05/17 00:17:53;;;;;;;5.30;1.10;;;;;;;19.28;nan;101806.56;4793788;29;20514;-91
2022/05/17 00:20:44;;;;;;;12.73;1.80;;;;;;;19.26;nan;101797.59;4791640;29;20513;-92
2022/05/17 00:23:22;;;;;;;11.80;2.13;;;;;;;19.16;nan;101790.88;4805224;29;21352;-91
2022/05/17 00:26:05;;;;;;;3.97;1.20;;;;;;;19.17;nan;101787.03;4805202;29;20473;-90
2022/05/17 00:28:34;;;;;;;5.40;1.70;;;;;;;19.17;nan;101792.59;4828012;29;20948;-92
2022/05/17 00:31:03;;;;;;;13.00;2.10;;;;;;;19.11;nan;101779.63;4865312;29;21021;-92
2022/05/17 00:33:33;;;;;;;8.67;1.70;;;;;;;19.10;nan;101781.53;4851292;29;20459;-92
2022/05/17 00:36:15;;;;;;;9.90;1.73;;;;;;;19.10;nan;101780.69;4868165;29;20534;-91
2022/05/17 00:38:43;;;;;;;5.97;1.70;;;;;;;19.09;nan;101785.38;4863470;29;20455;-90
2022/05/17 00:41:10;;;;;;;7.63;1.73;;;;;;;19.09;nan;101785.38;4855503;29;20465;-90
2022/05/17 00:46:54;;;;;;;8.83;1.50;;;;;;;19.11;nan;101794.31;4870357;29;20454;-89
2022/05/17 00:49:35;;;;;;;7.70;1.47;;;;;;;19.10;nan;101792.63;4898328;29;20467;-91
2022/05/17 00:52:29;;;;;;;3.33;1.13;;;;;;;19.12;nan;101789.63;4880644;29;20477;-89
2022/05/17 00:55:01;;;;;;;10.13;1.73;;;;;;;19.10;nan;101777.91;4879122;29;20819;-92
2022/05/17 00:57:54;;;;;;;6.90;1.20;;;;;;;19.16;nan;101779.78;4864933;29;20467;-92
2022/05/17 01:00:22;;;;;;;3.77;1.10;;;;;;;19.16;nan;101771.47;4881223;29;20461;-92
2022/05/17 01:02:57;;;;;;;6.70;1.40;;;;;;;19.15;nan;101770.63;4866699;29;20490;-91
2022/05/17 01:05:26;;;;;;;7.47;1.23;;;;;;;19.19;nan;101777.44;4865414;29;20827;-91
2022/05/17 01:08:18;;;;;;;12.90;1.80;;;;;;;19.16;nan;101775.09;4854218;29;20506;-92
2022/05/17 01:10:46;;;;;;;11.17;2.23;;;;;;;19.05;nan;101755.59;4879521;29;21080;-91
2022/05/17 01:16:19;;;;;;;3.40;1.57;;;;;;;18.94;nan;101751.59;4885140;29;20470;-91
2022/05/17 01:18:46;;;;;;;4.57;1.07;;;;;;;18.99;nan;101762.88;4881780;29;20473;-91
2022/05/17 01:21:22;;;;;;;4.43;1.03;;;;;;;19.05;nan;101761.97;4884966;29;20456;-92
2022/05/17 01:23:56;;;;;;;7.10;1.20;;;;;;;19.02;nan;101756.03;4851725;29;20494;-91
2022/05/17 01:26:31;;;;;;;7.80;1.20;;;;;;;19.01;nan;101766.28;4867779;29;20459;-92
2022/05/17 01:29:00;;;;;;;4.83;0.97;;;;;;;19.05;nan;101761.97;4866622;29;20457;-91
2022/05/17 01:31:28;;;;;;;3.57;1.07;;;;;;;19.05;nan;101756.41;4865761;29;20469;-91
2022/05/17 01:33:59;;;;;;;8.43;1.17;;;;;;;19.09;nan;101757.66;4867995;29;20480;-92
2022/05/17 01:36:30;;;;;;;4.37;0.90;;;;;;;19.04;nan;101743.66;4896860;29;20465;-91
2022/05/17 01:39:04;;;;;;;4.00;1.10;;;;;;;18.98;nan;101741.78;4868164;29;20962;-91
2022/05/17 01:41:45;;;;;;;3.43;0.90;;;;;;;19.02;nan;101734.72;4867756;29;20450;-91
2022/05/17 01:44:13;;;;;;;2.60;1.10;;;;;;;19.00;nan;101725.78;4854641;29;20529;-91
2022/05/17 01:46:46;;;;;;;4.00;0.90;;;;;;;19.08;nan;101738.50;4866661;29;20466;-90
2022/05/17 01:49:14;;;;;;;5.27;1.03;;;;;;;19.04;nan;101743.66;4885245;29;20932;-92
2022/05/17 01:51:44;;;;;;;5.10;1.57;;;;;;;19.02;nan;101744.97;4863178;29;20954;-91
2022/05/17 01:54:15;;;;;;;4.97;1.20;;;;;;;18.95;nan;101734.75;4859502;29;20455;-91
2022/05/17 01:56:52;;;;;;;5.20;1.10;;;;;;;18.85;nan;101725.28;4858979;29;20529;-90
2022/05/17 01:59:20;;;;;;;5.93;1.60;;;;;;;18.84;nan;101731.88;4831286;29;20459;-91
2022/05/17 02:01:48;;;;;;;4.77;1.43;;;;;;;18.78;nan;101730.84;4816539;29;20876;-91
2022/05/17 02:04:16;;;;;;;11.07;1.60;;;;;;;18.78;nan;101744.69;4816676;29;20494;-90
2022/05/17 02:06:43;;;;;;;6.00;1.30;;;;;;;18.71;nan;101731.94;4846714;29;20472;-91
2022/05/17 02:09:12;;;;;;;7.73;1.53;;;;;;;18.67;nan;101731.53;4831336;29;20455;-90
2022/05/17 02:11:40;;;;;;;9.90;1.53;;;;;;;18.65;nan;101721.78;4831448;29;20802;-90
2022/05/17 02:14:08;;;;;;;8.13;1.43;;;;;;;18.61;nan;101719.47;4805365;29;20471;-91
2022/05/17 02:16:37;;;;;;;5.13;1.03;;;;;;;18.61;nan;101722.22;4819958;29;20461;-90
2022/05/17 02:19:19;;;;;;;5.67;1.00;;;;;;;18.57;nan;101720.94;4859300;29;20590;-90
2022/05/17 02:21:49;;;;;;;9.27;1.80;;;;;;;18.56;nan;101719.25;4880586;29;20509;-91
2022/05/17 02:24:19;;;;;;;6.77;0.93;;;;;;;18.59;nan;101731.81;4863032;29;21001;-91
2022/05/17 02:26:48;;;;;;;5.33;1.17;;;;;;;18.51;nan;101716.28;4881666;29;20937;-92
2022/05/17 02:29:25;;;;;;;9.63;1.50;;;;;;;18.60;nan;101726.06;4854396;29;20453;-90
2022/05/17 02:31:53;;;;;;;6.73;1.33;;;;;;;18.57;nan;101720.09;4884059;29;20527;-90
2022/05/17 02:34:21;;;;;;;6.00;0.93;;;;;;;18.46;nan;101707.81;4865450;29;20815;-91
2022/05/17 02:36:49;;;;;;;4.23;0.83;;;;;;;18.52;nan;101715.22;4865798;29;20494;-90
2022/05/17 02:39:17;;;;;;;7.87;1.20;;;;;;;18.53;nan;101722.44;4830445;29;20463;-90
2022/05/17 02:41:46;;;;;;;6.10;1.17;;;;;;;18.49;nan;101712.03;4827679;29;20457;-91
2022/05/17 02:44:14;;;;;;;14.63;1.47;;;;;;;18.46;nan;101713.34;4812900;29;20548;-90
2022/05/17 02:46:52;;;;;;;6.23;0.93;;;;;;;18.44;nan;101709.97;4831937;29;20500;-90
2022/05/17 02:49:22;;;;;;;11.83;1.70;;;;;;;18.41;nan;101709.53;4846246;29;20512;-92
2022/05/17 02:51:54;;;;;;;5.37;1.03;;;;;;;18.42;nan;101712.09;4860822;29;20472;-91
2022/05/17 02:54:22;;;;;;;4.07;1.00;;;;;;;18.41;nan;101710.41;4830529;29;20459;-90
2022/05/17 02:56:51;;;;;;;6.93;0.80;;;;;;;18.42;nan;101706.56;4861063;29;21066;-92
2022/05/17 02:59:20;;;;;;;2.80;0.67;;;;;;;18.38;nan;101683.16;4831319;29;20455;-91
2022/05/17 03:01:53;;;;;;;8.30;0.80;;;;;;;18.44;nan;101692.50;4860747;29;20966;-90
2022/05/17 03:04:21;;;;;;;5.67;1.20;;;;;;;18.37;nan;101681.47;4845314;29;20510;-90
2022/05/17 03:06:52;;;;;;;4.50;1.10;;;;;;;18.47;nan;101695.66;4831275;29;20455;-91
2022/05/17 03:09:34;;;;;;;2.73;0.80;;;;;;;18.43;nan;101686.13;4821625;29;20469;-91
2022/05/17 03:12:02;;;;;;;5.87;1.03;;;;;;;18.50;nan;101681.38;4848093;29;20447;-91
2022/05/17 03:14:31;;;;;;;4.73;1.30;;;;;;;18.48;nan;101680.72;4830783;29;20459;-91
2022/05/17 03:17:21;;;;;;;4.60;0.87;;;;;;;18.46;nan;101668.22;4852373;29;20462;-90
2022/05/17 03:19:49;;;;;;;1.20;0.57;;;;;;;18.41;nan;101668.88;4881223;29;20493;-90
2022/05/17 03:22:17;;;;;;;2.80;0.70;;;;;;;18.51;nan;101672.00;4868252;29;20837;-91
2022/05/17 03:24:46;;;;;;;4.80;1.37;;;;;;;18.49;nan;101670.50;4864621;29;21152;-91
2022/05/17 03:27:34;;;;;;;7.47;1.07;;;;;;;18.46;nan;101669.06;4866614;29;20446;-90
2022/05/17 03:30:02;;;;;;;4.87;1.10;;;;;;;18.45;nan;101670.13;4848253;29;20457;-90
2022/05/17 03:32:30;;;;;;;3.60;0.80;;;;;;;18.45;nan;101678.44;4847837;29;20523;-91
2022/05/17 03:34:57;;;;;;;5.30;1.03;;;;;;;18.44;nan;101682.28;4865133;29;20522;-92
2022/05/17 03:37:29;;;;;;;5.53;1.07;;;;;;;18.37;nan;101675.91;4864161;29;20463;-91
2022/05/17 03:39:57;;;;;;;6.93;1.27;;;;;;;18.39;nan;101682.09;4880920;29;20521;-92
2022/05/17 03:42:40;;;;;;;4.93;0.70;;;;;;;18.29;nan;101677.03;4864618;29;20466;-91
2022/05/17 03:45:09;;;;;;;8.30;1.60;;;;;;;18.18;nan;101671.34;4866731;29;20482;-91
2022/05/17 03:47:38;;;;;;;5.00;1.87;;;;;;;18.17;nan;101683.50;4860951;29;20471;-91
2022/05/17 03:50:06;;;;;;;8.30;1.63;;;;;;;18.15;nan;101691.16;4863226;29;20500;-91
2022/05/17 03:52:39;;;;;;;5.10;1.20;;;;;;;18.06;nan;101685.03;4870457;29;20459;-90
2022/05/17 03:55:08;;;;;;;5.20;1.30;;;;;;;18.05;nan;101676.97;4866196;29;20454;-91
2022/05/17 03:57:44;;;;;;;5.73;1.07;;;;;;;18.01;nan;101692.31;4865298;29;20525;-91
2022/05/17 04:00:17;;;;;;;13.40;1.70;;;;;;;17.89;nan;101689.38;4868290;29;20450;-91
2022/05/17 04:02:46;;;;;;;4.27;1.20;;;;;;;17.88;nan;101690.44;4863556;29;20458;-91
2022/05/17 04:05:15;;;;;;;2.20;0.67;;;;;;;17.86;nan;101696.19;4862019;29;20458;-91
2022/05/17 04:07:43;;;;;;;7.20;1.30;;;;;;;17.74;nan;101688.78;4877827;29;20469;-91
2022/05/17 04:10:25;;;;;;;5.53;0.90;;;;;;;17.76;nan;101700.47;4850773;29;20457;-91
2022/05/17 04:13:01;;;;;;;3.97;1.07;;;;;;;17.72;nan;101707.50;4852689;29;20468;-90
2022/05/17 04:15:30;;;;;;;3.13;0.83;;;;;;;17.71;nan;101703.03;4893514;29;20472;-90
2022/05/17 04:17:59;;;;;;;1.43;0.53;;;;;;;17.66;nan;101695.41;4844603;29;20460;-90
2022/05/17 04:20:28;;;;;;;3.13;0.73;;;;;;;17.70;nan;101699.44;4876006;29;20486;-91
2022/05/17 04:22:59;;;;;;;4.80;0.83;;;;;;;17.70;nan;101707.75;4849482;29;20461;-90
2022/05/17 04:25:32;;;;;;;5.20;0.80;;;;;;;17.63;nan;101700.50;4878890;29;20825;-90
2022/05/17 04:28:13;;;;;;;8.63;1.20;;;;;;;17.56;nan;101706.03;4848444;29;20447;-92
2022/05/17 04:30:45;;;;;;;4.10;0.93;;;;;;;17.55;nan;101696.03;4875078;29;20459;-91
2022/05/17 04:33:13;;;;;;;3.33;1.03;;;;;;;17.58;nan;101698.38;4863516;29;20464;-91
2022/05/17 04:35:43;;;;;;;4.77;0.73;;;;;;;17.66;nan;101705.63;4845771;29;20522;-90
2022/05/17 04:38:13;;;;;;;7.20;1.00;;;;;;;17.63;nan;101701.34;4833125;29;20463;-91
2022/05/17 04:40:42;;;;;;;3.40;0.93;;;;;;;17.65;nan;101713.06;4843985;29;20937;-91
2022/05/17 04:43:12;;;;;;;16.00;2.50;;;;;;;17.69;nan;101702.44;4839110;29;20454;-90
2022/05/17 04:45:41;;;;;;;33.00;7.30;;;;;;;17.82;nan;101708.75;4863715;29;20458;-89
2022/05/17 04:48:09;;;;;;;43.63;8.40;;;;;;;17.94;nan;101714.44;4850803;29;20521;-90
2022/05/17 04:51:06;;;;;;;27.33;6.70;;;;;;;18.03;nan;101713.16;4802512;29;20864;-91
2022/05/17 04:53:35;;;;;;;38.77;6.30;;;;;;;18.05;nan;101707.41;4823068;29;20506;-90
2022/05/17 04:56:05;;;;;;;28.67;6.03;;;;;;;18.11;nan;101717.56;4808040;29;20461;-91
2022/05/17 04:58:34;;;;;;;29.77;5.03;;;;;;;18.10;nan;101708.41;4832253;29;20457;-90
2022/05/17 05:01:03;;;;;;;20.27;4.97;;;;;;;18.06;nan;101703.56;4795523;29;20975;-90
2022/05/17 05:03:32;;;;;;;26.70;5.40;;;;;;;18.03;nan;101701.22;4811208;29;20516;-92
2022/05/17 05:06:01;;;;;;;28.43;4.60;;;;;;;18.06;nan;101701.66;4825970;29;20452;-91
2022/05/17 05:08:31;;;;;;;26.43;4.47;;;;;;;17.97;nan;101691.88;4825745;29;20457;-91
2022/05/17 05:11:13;;;;;;;29.10;5.13;;;;;;;18.06;nan;101700.81;4825814;29;20500;-92
2022/05/17 05:13:55;;;;;;;23.97;4.87;;;;;;;18.12;nan;101719.25;4799025;29;20460;-91
2022/05/17 05:16:23;;;;;;;16.10;5.50;;;;;;;18.04;nan;101709.31;4889488;29;20818;-91
2022/05/17 05:18:53;;;;;;;23.30;6.30;;;;;;;18.10;nan;101721.41;4867242;29;20462;-91
2022/05/17 05:21:22;;;;;;;25.77;5.90;;;;;;;18.05;nan;101724.00;4863051;29;20446;-91
2022/05/17 05:23:50;;;;;;;30.87;5.40;;;;;;;18.06;nan;101720.16;4862427;29;20988;-90
2022/05/17 05:26:29;;;;;;;27.10;6.07;;;;;;;18.09;nan;101719.72;4864098;29;20458;-91
2022/05/17 05:29:03;;;;;;;22.43;5.47;;;;;;;17.98;nan;101709.34;4863666;29;20455;-91
2022/05/17 05:31:36;;;;;;;31.27;6.37;;;;;;;18.05;nan;101724.00;4878515;29;20502;-90
2022/05/17 05:34:06;;;;;;;31.47;6.17;;;;;;;18.09;nan;101733.56;4880652;29;20461;-90
2022/05/17 05:36:34;;;;;;;28.07;5.70;;;;;;;18.06;nan;101725.69;4851734;29;20457;-92
2022/05/17 05:39:03;;;;;;;23.80;5.60;;;;;;;18.08;nan;101726.34;4864083;29;20470;-90
2022/05/17 05:41:33;;;;;;;23.20;5.30;;;;;;;18.11;nan;101726.72;4847636;29;20485;-90
2022/05/17 05:44:01;;;;;;;28.40;5.77;;;;;;;18.15;nan;101738.19;4867411;29;20554;-91
2022/05/17 05:46:30;;;;;;;21.40;3.77;;;;;;;18.16;nan;101724.16;4867246;29;20447;-91
2022/05/17 05:49:07;;;;;;;21.63;5.37;;;;;;;18.16;nan;101718.59;4870045;29;20531;-91
2022/05/17 05:51:40;;;;;;;24.33;5.00;;;;;;;18.18;nan;101726.69;4866241;29;20465;-91
2022/05/17 05:54:11;;;;;;;25.00;5.10;;;;;;;18.20;nan;101719.03;4899300;29;20470;-91
2022/05/17 05:56:41;;;;;;;30.03;5.07;;;;;;;18.25;nan;101727.53;4881284;29;20465;-90
2022/05/17 05:59:09;;;;;;;18.33;3.70;;;;;;;18.31;nan;101737.69;4864360;29;20461;-91
2022/05/17 06:01:39;;;;;;;21.27;4.97;;;;;;;18.33;nan;101745.78;4851176;29;20454;-92
2022/05/17 06:04:08;;;;;;;23.40;3.60;;;;;;;18.34;nan;101741.94;4898420;29;20537;-90
2022/05/17 06:07:09;;;;;;;15.23;3.07;;;;;;;18.45;nan;101752.34;4862804;29;20455;-91
2022/05/17 06:09:37;;;;;;;15.63;3.70;;;;;;;18.45;nan;101744.88;4877208;29;20464;-90
2022/05/17 06:12:08;;;;;;;16.20;3.03;;;;;;;18.47;nan;101748.25;4834651;29;20813;-91
2022/05/17 06:14:37;;;;;;;15.60;3.17;;;;;;;18.48;nan;101738.03;4865629;29;20459;-90
2022/05/17 06:17:05;;;;;;;19.80;3.50;;;;;;;18.59;nan;101756.75;4867870;29;20455;-91
2022/05/17 06:19:37;;;;;;;18.27;2.43;;;;;;;18.67;nan;101747.31;4865619;29;20858;-90
2022/05/17 06:22:06;;;;;;;14.60;2.50;;;;;;;18.67;nan;101736.22;4852698;29;20461;-90
2022/05/17 06:24:38;;;;;;;15.97;2.80;;;;;;;18.80;nan;101752.78;4850400;29;20490;-90
2022/05/17 06:27:06;;;;;;;20.77;3.50;;;;;;;18.90;nan;101759.50;4867426;29;20471;-90
2022/05/17 06:29:36;;;;;;;10.77;3.17;;;;;;;18.95;nan;101756.06;4831724;29;20467;-90
2022/05/17 06:32:05;;;;;;;15.43;2.70;;;;;;;19.02;nan;101756.88;4864389;29;20443;-90
2022/05/17 06:34:35;;;;;;;12.70;2.70;;;;;;;19.03;nan;101772.44;4822942;29;20460;-90
2022/05/17 06:37:04;;;;;;;18.83;4.00;;;;;;;19.09;nan;101777.06;4814433;29;20471;-90
2022/05/17 06:39:37;;;;;;;19.03;3.67;;;;;;;19.09;nan;101752.13;4829596;29;20481;-91
2022/05/17 06:42:07;;;;;;;12.43;2.77;;;;;;;19.25;nan;101770.97;4832046;29;20472;-91
2022/05/17 06:44:37;;;;;;;10.57;2.03;;;;;;;19.28;nan;101770.50;4755728;30;20840;-91
2022/05/17 06:47:06;;;;;;;11.93;2.70;;;;;;;19.30;nan;101764.75;4756638;30;20452;-90
2022/05/17 07:32:12;;;;;;;8.47;2.13;;;;;;;20.54;nan;101788.63;4886658;29;20526;-92
2022/05/17 07:34:42;;;;;;;13.20;2.37;;;;;;;20.59;nan;101795.16;4867985;29;20472;-92
2022/05/17 07:37:13;;;;;;;8.70;1.67;;;;;;;20.60;nan;101794.06;4842732;29;20470;-91
2022/05/17 07:39:48;;;;;;;9.77;2.17;;;;;;;20.72;nan;101796.06;4851860;29;20522;-91
2022/05/17 08:55:50;;;;;;;18.07;1.57;;;;;;;23.25;nan;101824.25;4879166;29;20462;-90
2022/05/17 08:58:28;;;;;;;4.70;1.27;;;;;;;23.34;nan;101833.88;4863920;29;20454;-92
2022/05/17 09:01:13;;;;;;;13.80;2.60;;;;;;;23.40;nan;101827.31;4848920;29;20463;-92
2022/05/17 09:03:44;;;;;;;5.80;1.53;;;;;;;23.48;nan;101833.53;4848114;29;20458;-90
2022/05/17 09:06:31;;;;;;;7.70;2.37;;;;;;;23.58;nan;101822.59;4879193;29;20531;-89
2022/05/17 09:09:50;;;;;;;6.80;2.00;;;;;;;23.68;nan;101829.19;4863292;29;20454;-88
2022/05/17 09:12:47;;;;;;;6.70;1.37;;;;;;;23.79;nan;101835.78;4856861;29;20877;-88
2022/05/17 09:15:16;;;;;;;12.77;2.70;;;;;;;23.86;nan;101822.47;4864636;29;20458;-89
2022/05/17 09:17:45;;;;;;;3.77;1.30;;;;;;;23.96;nan;101819.00;4863636;29;20824;-89
2022/05/17 09:20:19;;;;;;;9.03;1.60;;;;;;;24.06;nan;101821.94;4866632;29;20712;-88
2022/05/17 09:22:47;;;;;;;6.63;1.23;;;;;;;24.18;nan;101821.84;4841873;29;20828;-88
2022/05/17 09:25:20;;;;;;;11.53;1.80;;;;;;;24.28;nan;101816.41;4862804;29;20514;-88
2022/05/17 09:27:50;;;;;;;9.00;1.90;;;;;;;24.36;nan;101814.03;4865535;29;20450;-88
2022/05/17 09:30:23;;;;;;;11.63;1.50;;;;;;;24.57;nan;101809.53;4851052;29;20451;-89
2022/05/17 09:33:04;;;;;;;12.90;2.27;;;;;;;24.76;nan;101807.25;4864430;29;20467;-89
2022/05/17 09:35:32;;;;;;;11.43;1.97;;;;;;;24.90;nan;101821.66;4852833;29;20462;-88
2022/05/17 09:38:02;;;;;;;6.83;1.57;;;;;;;24.93;nan;101810.78;4865888;29;20545;-89
2022/05/17 09:40:32;;;;;;;8.70;1.83;;;;;;;24.95;nan;101805.81;4807151;29;20500;-89
2022/05/17 09:43:09;;;;;;;14.37;2.00;;;;;;;25.11;nan;101815.19;4777235;29;20454;-88
2022/05/17 09:46:00;;;;;;;6.83;1.43;;;;;;;25.18;nan;101799.03;4806816;29;20504;-88
2022/05/17 09:48:32;;;;;;;3.23;1.00;;;;;;;25.28;nan;101799.13;4821710;29;20465;-89
2022/05/17 09:54:27;;;;;;;3.60;1.10;;;;;;;25.45;nan;101805.41;4821292;29;20464;-88
2022/05/17 09:56:55;;;;;;;6.30;1.50;;;;;;;25.59;nan;101810.59;4842584;29;20458;-88
2022/05/17 09:59:23;;;;;;;7.70;1.10;;;;;;;25.69;nan;101810.69;4845409;29;20546;-88
2022/05/17 10:01:51;;;;;;;5.90;1.40;;;;;;;25.72;nan;101810.16;4867985;29;20491;-87
2022/05/17 10:04:20;;;;;;;8.73;3.47;;;;;;;25.87;nan;101804.66;4867781;29;20461;-88
2022/05/17 10:06:55;;;;;;;6.60;1.67;;;;;;;26.08;nan;101819.63;4851033;29;20863;-87
2022/05/17 10:09:50;;;;;;;8.50;1.17;;;;;;;26.09;nan;101810.94;4869240;29;20456;-88
2022/05/17 10:12:27;;;;;;;4.97;1.00;;;;;;;26.21;nan;101807.06;4870425;29;20457;-88
2022/05/17 10:14:58;;;;;;;7.23;1.17;;;;;;;26.26;nan;101812.72;4883523;29;20457;-88
2022/05/17 10:17:30;;;;;;;7.90;1.30;;;;;;;26.36;nan;101804.41;4867871;29;20453;-88
2022/05/17 10:20:02;;;;;;;4.90;1.17;;;;;;;26.48;nan;101813.41;4870584;29;20466;-87
2022/05/17 10:22:52;;;;;;;2.73;0.90;;;;;;;26.68;nan;101816.31;4860960;29;20467;-88
2022/05/17 10:25:48;;;;;;;4.80;1.20;;;;;;;26.89;nan;101820.00;4860814;29;20495;-88
2022/05/17 10:28:26;;;;;;;7.17;1.70;;;;;;;26.96;nan;101802.91;4876783;29;20870;-88
2022/05/17 10:31:39;;;;;;;4.73;1.40;;;;;;;26.97;nan;101799.00;4863997;29;20458;-90
2022/05/17 10:34:24;;;;;;;6.57;1.63;;;;;;;27.12;nan;101824.31;4844868;29;20517;-87
2022/05/17 10:36:56;;;;;;;4.37;1.30;;;;;;;27.15;nan;101812.50;4856600;29;20832;-87
2022/05/17 10:39:33;;;;;;;5.40;1.47;;;;;;;27.24;nan;101805.22;4844378;29;20460;-87
2022/05/17 10:42:01;;;;;;;7.73;1.67;;;;;;;27.36;nan;101814.19;4829788;29;20522;-87
2022/05/17 10:44:42;;;;;;;4.17;1.10;;;;;;;27.41;nan;101821.78;4829690;29;20490;-87
2022/05/17 10:47:15;;;;;;;8.90;1.07;;;;;;;27.36;nan;101796.50;4817834;29;20452;-91
2022/05/17 10:50:10;;;;;;;6.77;1.37;;;;;;;27.45;nan;101818.16;4816205;29;20439;-87
2022/05/17 10:52:46;;;;;;;6.97;2.13;;;;;;;27.43;nan;101813.94;4819597;29;20439;-87
2022/05/17 10:55:20;;;;;;;8.10;2.37;;;;;;;27.41;nan;101816.16;4849726;29;20535;-87
2022/05/17 10:57:51;;;;;;;9.90;2.90;;;;;;;27.50;nan;101820.97;4769422;30;20467;-88
2022/05/17 11:00:22;;;;;;;4.23;1.50;;;;;;;27.62;nan;101817.03;4754829;30;20461;-87
2022/05/17 11:03:02;;;;;;;4.50;1.33;;;;;;;27.73;nan;101818.72;4740607;30;20506;-88
2022/05/17 11:05:36;;;;;;;5.03;1.67;;;;;;;27.92;nan;101822.63;4754282;30;20491;-87
2022/05/17 11:08:25;;;;;;;13.90;1.50;;;;;;;27.96;nan;101812.50;4773376;30;20467;-88
2022/05/17 11:11:10;;;;;;;14.73;2.60;;;;;;;28.00;nan;101802.38;4804266;29;21045;-87
2022/05/17 11:13:47;;;;;;;5.87;1.80;;;;;;;28.03;nan;101800.97;4769037;30;20529;-87
2022/05/17 11:16:40;;;;;;;3.90;1.20;;;;;;;28.11;nan;101806.84;4789499;29;20457;-87
2022/05/17 11:19:21;;;;;;;2.57;0.77;;;;;;;28.22;nan;101793.63;4828101;29;20448;-87
2022/05/17 11:21:52;;;;;;;6.00;0.97;;;;;;;28.26;nan;101793.91;4811841;29;20452;-86
2022/05/17 11:24:22;;;;;;;15.67;2.07;;;;;;;28.34;nan;101793.28;4811004;29;21006;-87
2022/05/17 11:27:46;;;;;;;;;;;;;;;;;;;;;
2022/05/17 11:34:28;;;;;;;7.03;1.27;;;;;;;28.72;nan;101789.72;4843047;29;20464;-92
2022/05/17 11:37:36;;;;;;;4.00;0.67;;;;;;;28.85;nan;101774.22;4842184;29;20452;-91
2022/05/17 16:42:54;;;;;;;3.00;0.87;;;;;;;27.72;nan;101592.25;4900250;29;20479;-91
2022/05/17 16:45:31;;;;;;;3.90;0.77;;;;;;;27.56;nan;101577.41;4873043;29;20485;-92
2022/05/17 16:47:59;;;;;;;3.03;0.83;;;;;;;27.60;nan;101586.13;4876767;29;20452;-91
2022/05/17 16:50:44;;;;;;;2.13;0.80;;;;;;;27.74;nan;101587.19;4860096;29;20468;-91
2022/05/17 17:16:10;;;;;;;5.73;0.77;;;;;;;26.67;nan;101559.38;4875769;29;20545;-91
2022/05/17 17:18:42;;;;;;;2.97;0.97;;;;;;;26.62;nan;101579.00;4848543;29;20519;-91
2022/05/17 17:21:13;;;;;;;4.80;1.00;;;;;;;26.52;nan;101572.56;4863376;29;20466;-91
2022/05/17 17:23:42;;;;;;;3.60;1.00;;;;;;;26.47;nan;101567.78;4863801;29;20463;-92
2022/05/17 17:26:17;;;;;;;8.57;1.37;;;;;;;26.31;nan;101554.88;4848375;29;20497;-91
2022/05/17 17:28:49;;;;;;;3.43;0.67;;;;;;;26.31;nan;101566.09;4847540;29;20815;-91
2022/05/17 17:31:19;;;;;;;3.70;0.70;;;;;;;26.25;nan;101558.75;4865561;29;20454;-91
2022/05/17 17:39:34;;;;;;;8.30;1.13;;;;;;;26.05;nan;101557.59;4863214;29;20958;-91
2022/05/17 17:42:16;;;;;;;3.97;1.63;;;;;;;25.89;nan;101563.44;4876887;29;20458;-91
2022/05/17 17:44:52;;;;;;;11.13;1.80;;;;;;;25.94;nan;101550.31;4849295;29;20474;-91
2022/05/17 17:47:24;;;;;;;4.03;0.97;;;;;;;25.97;nan;101540.50;4866789;29;20893;-91
2022/05/17 17:50:02;;;;;;;6.93;0.97;;;;;;;26.07;nan;101535.75;4867101;29;20466;-92
2022/05/17 17:52:31;;;;;;;10.93;1.73;;;;;;;25.95;nan;101526.78;4866643;29;20482;-91
2022/05/17 17:55:00;;;;;;;7.07;1.80;;;;;;;25.81;nan;101522.81;4866484;29;20477;-91
2022/05/17 17:57:29;;;;;;;6.93;1.30;;;;;;;25.66;nan;101511.56;4863043;29;20470;-91
2022/05/17 17:59:58;;;;;;;3.27;1.10;;;;;;;25.55;nan;101535.03;4866294;29;20489;-91
2022/05/17 18:02:32;;;;;;;8.60;1.43;;;;;;;25.42;nan;101528.81;4866402;29;20826;-92
2022/05/17 18:09:33;;;;;;;16.00;1.50;;;;;;;25.34;nan;101529.34;4886921;29;20405;-91
2022/05/17 18:12:18;;;;;;;6.10;1.23;;;;;;;25.15;nan;101516.94;4882517;29;20446;-92
2022/05/17 18:14:47;;;;;;;8.53;1.37;;;;;;;25.02;nan;101509.03;4866673;29;20459;-90
2022/05/17 18:17:25;;;;;;;7.93;1.97;;;;;;;24.99;nan;101510.44;4846996;29;20501;-90
2022/05/17 18:19:58;;;;;;;4.93;1.03;;;;;;;24.85;nan;101530.72;4879978;29;20465;-91
2022/05/17 18:22:31;;;;;;;10.80;2.27;;;;;;;24.69;nan;101538.16;4850961;29;20474;-90
2022/05/17 18:25:08;;;;;;;6.03;1.10;;;;;;;24.68;nan;101551.28;4867451;29;20457;-90
2022/05/17 18:27:40;;;;;;;8.93;1.40;;;;;;;24.47;nan;101534.63;4865104;29;20469;-90
2022/05/17 19:05:45;;;;;;;11.20;1.80;;;;;;;22.85;nan;101528.81;4896346;29;20500;-93
2022/05/17 19:14:07;;;;;;;7.00;1.70;;;;;;;22.74;nan;101532.50;4885242;29;20465;-91
2022/05/17 19:16:44;;;;;;;9.33;1.47;;;;;;;22.63;nan;101542.66;4868150;29;20472;-90
2022/05/17 19:19:30;;;;;;;5.43;1.00;;;;;;;22.58;nan;101544.53;4883553;29;20963;-91
2022/05/17 19:22:11;;;;;;;4.83;1.57;;;;;;;22.49;nan;101530.19;4872167;29;20452;-92
2022/05/17 19:28:21;;;;;;;7.23;1.77;;;;;;;22.38;nan;101539.44;4899117;29;20532;-89
2022/05/17 19:30:54;;;;;;;11.70;1.27;;;;;;;22.29;nan;101532.63;4854689;29;20968;-90
2022/05/17 19:33:22;;;;;;;9.57;1.07;;;;;;;22.17;nan;101529.06;4883076;29;20457;-90
2022/05/17 19:35:51;;;;;;;6.40;1.30;;;;;;;22.05;nan;101524.41;4868031;29;20458;-89
2022/05/17 19:41:07;;;;;;;5.03;0.90;;;;;;;21.94;nan;101516.06;4871877;29;20513;-90
2022/05/17 19:43:36;;;;;;;7.47;1.53;;;;;;;21.93;nan;101531.13;4867015;29;20450;-89
2022/05/17 19:46:05;;;;;;;5.53;1.23;;;;;;;21.92;nan;101523.84;4867007;29;20489;-89
2022/05/17 19:48:38;;;;;;;7.47;1.47;;;;;;;21.90;nan;101521.31;4881377;29;20454;-89
2022/05/17 19:51:12;;;;;;;7.80;1.40;;;;;;;21.87;nan;101523.75;4878773;29;20457;-90
2022/05/17 19:53:40;;;;;;;6.87;1.57;;;;;;;21.82;nan;101535.63;4881831;29;20457;-89
2022/05/17 19:56:07;;;;;;;13.90;1.63;;;;;;;21.85;nan;101540.69;4866803;29;20559;-89
2022/05/17 19:58:38;;;;;;;7.20;1.67;;;;;;;21.77;nan;101538.31;4851452;29;20474;-90
2022/05/17 20:01:07;;;;;;;6.27;2.00;;;;;;;21.75;nan;101540.50;4863865;29;20462;-89
2022/05/17 20:03:34;;;;;;;5.53;1.40;;;;;;;21.76;nan;101541.34;4863443;29;20458;-90
2022/05/17 20:06:06;;;;;;;9.90;1.50;;;;;;;21.67;nan;101535.34;4860073;29;20494;-89
2022/05/17 20:08:42;;;;;;;9.07;1.47;;;;;;;21.61;nan;101539.94;4874060;29;20477;-89
2022/05/17 20:11:13;;;;;;;8.27;1.20;;;;;;;21.58;nan;101534.03;4862967;29;20458;-89
2022/05/17 20:13:41;;;;;;;9.07;1.30;;;;;;;21.61;nan;101547.44;4792300;29;20446;-90
2022/05/17 20:16:12;;;;;;;5.07;1.17;;;;;;;21.50;nan;101542.78;4804519;29;20461;-88
2022/05/17 20:18:42;;;;;;;9.73;1.53;;;;;;;21.41;nan;101539.53;4807053;29;20460;-88
2022/05/17 20:21:14;;;;;;;8.00;1.67;;;;;;;21.44;nan;101546.53;4792419;29;20510;-88
2022/05/17 20:23:41;;;;;;;6.53;1.60;;;;;;;21.40;nan;101545.34;4822277;29;20466;-88
2022/05/17 20:26:12;;;;;;;4.63;1.33;;;;;;;21.33;nan;101549.13;4806353;29;20492;-88
2022/05/17 20:28:41;;;;;;;9.93;1.90;;;;;;;21.28;nan;101546.22;4807160;29;20474;-88
2022/05/17 20:31:15;;;;;;;6.90;1.40;;;;;;;21.28;nan;101550.94;4805660;29;20550;-87
2022/05/17 20:33:45;;;;;;;6.80;1.40;;;;;;;21.23;nan;101556.38;4804609;29;20468;-88
2022/05/17 20:36:18;;;;;;;10.27;1.60;;;;;;;21.16;nan;101545.38;4807157;29;20461;-90
2022/05/17 20:38:52;;;;;;;8.17;1.43;;;;;;;21.17;nan;101547.03;4789597;29;20453;-88
2022/05/17 20:41:24;;;;;;;6.70;1.67;;;;;;;21.17;nan;101549.81;4806745;29;20472;-89
2022/05/17 20:43:54;;;;;;;6.13;1.23;;;;;;;21.12;nan;101551.66;4791788;29;20472;-87
2022/05/17 20:49:16;;;;;;;12.03;1.57;;;;;;;21.08;nan;101551.31;4821480;29;20822;-88